createdAt,value
2018-10-11T00:00:07.731Z,10.21
2018-10-11T00:02:36.192Z,10.19
2018-10-11T00:05:05.492Z,10.20
2018-10-11T00:07:33.923Z,10.12
2018-10-11T00:10:02.369Z,10.06
2018-10-11T00:12:30.800Z,10.07
2018-10-11T00:15:00.150Z,10.01
2018-10-11T00:17:28.646Z,9.91
2018-10-11T00:19:57.151Z,9.94
2018-10-11T00:22:25.670Z,9.84
2018-10-11T00:24:54.189Z,9.80
2018-10-11T00:27:22.699Z,9.79
2018-10-11T00:29:51.153Z,9.78
2018-10-11T00:32:19.603Z,9.76
2018-10-11T00:34:48.047Z,9.68
2018-10-11T00:37:16.548Z,9.66
2018-10-11T00:39:45.100Z,9.61
2018-10-11T00:42:13.558Z,9.55
2018-10-11T00:44:42.025Z,9.41
2018-10-11T00:47:10.477Z,9.55
2018-10-11T00:49:38.957Z,9.58
2018-10-11T00:52:07.476Z,9.64
2018-10-11T00:54:36.236Z,9.65
2018-10-11T00:57:04.723Z,9.61
2018-10-11T00:59:33.197Z,9.58
2018-10-11T01:02:01.716Z,9.51
2018-10-11T01:04:30.212Z,9.52
2018-10-11T01:06:58.693Z,9.58
2018-10-11T01:09:27.166Z,9.75
2018-10-11T01:11:55.931Z,9.80
2018-10-11T01:14:24.381Z,9.80
2018-10-11T01:16:53.627Z,9.87
2018-10-11T01:19:22.079Z,9.75
2018-10-11T01:21:51.195Z,9.58
2018-10-11T01:24:19.637Z,9.60
2018-10-11T01:26:48.135Z,9.49
2018-10-11T01:29:16.582Z,9.56
2018-10-11T01:31:45.078Z,9.53
2018-10-11T01:34:14.197Z,9.43
2018-10-11T01:36:42.704Z,9.36
2018-10-11T01:39:11.211Z,9.41
2018-10-11T01:41:39.663Z,9.50
2018-10-11T01:44:08.107Z,9.43
2018-10-11T01:46:36.562Z,9.49
2018-10-11T01:49:05.077Z,9.45
2018-10-11T01:51:33.492Z,9.37
2018-10-11T01:54:01.985Z,9.27
2018-10-11T01:56:30.656Z,9.31
2018-10-11T01:58:59.096Z,9.27
2018-10-11T02:01:27.555Z,9.19
2018-10-11T02:03:55.997Z,9.02
2018-10-11T02:06:24.373Z,9.00
2018-10-11T02:08:52.823Z,9.10
2018-10-11T02:11:21.459Z,9.15
2018-10-11T02:13:49.933Z,9.20
2018-10-11T02:16:18.392Z,9.17
2018-10-11T02:18:47.049Z,9.14
2018-10-11T02:21:15.487Z,8.99
2018-10-11T02:23:44.255Z,8.96
2018-10-11T02:26:12.949Z,8.94
2018-10-11T02:28:41.417Z,9.00
2018-10-11T02:31:09.800Z,8.78
2018-10-11T02:33:38.316Z,8.71
2018-10-11T02:36:06.746Z,8.76
2018-10-11T02:38:35.767Z,8.83
2018-10-11T02:41:04.256Z,8.90
2018-10-11T02:43:32.747Z,8.91
2018-10-11T02:46:01.240Z,9.01
2018-10-11T02:48:29.678Z,8.88
2018-10-11T02:50:58.144Z,8.70
2018-10-11T02:53:26.721Z,8.69
2018-10-11T02:55:55.155Z,8.77
2018-10-11T02:58:34.986Z,8.89
2018-10-11T03:01:03.408Z,8.94
2018-10-11T03:03:32.599Z,9.00
2018-10-11T03:06:02.514Z,8.95
2018-10-11T03:08:30.995Z,8.80
2018-10-11T03:10:59.681Z,8.60
2018-10-11T03:13:28.604Z,8.58
2018-10-11T03:15:57.084Z,8.57
2018-10-11T03:18:25.524Z,8.53
2018-10-11T03:20:53.951Z,8.54
2018-10-11T03:23:22.380Z,8.42
2018-10-11T03:25:51.319Z,8.36
2018-10-11T03:28:19.743Z,8.22
2018-10-11T03:30:48.243Z,8.27
2018-10-11T03:33:16.800Z,8.42
2018-10-11T03:35:47.091Z,8.46
2018-10-11T03:38:15.539Z,8.47
2018-10-11T03:40:44.164Z,8.53
2018-10-11T03:43:12.626Z,8.30
2018-10-11T03:45:41.096Z,8.33
2018-10-11T03:48:09.528Z,8.41
2018-10-11T03:50:38.068Z,8.13
2018-10-11T03:53:06.669Z,8.15
2018-10-11T03:55:35.113Z,8.29
2018-10-11T03:58:03.565Z,8.33
2018-10-11T04:00:32.048Z,8.10
2018-10-11T04:03:00.465Z,8.07
2018-10-11T04:05:28.946Z,8.04
2018-10-11T04:07:57.351Z,8.07
2018-10-11T04:10:25.844Z,8.15
2018-10-11T04:12:54.315Z,8.10
2018-10-11T04:15:22.814Z,8.06
2018-10-11T04:17:51.294Z,7.98
2018-10-11T04:20:19.756Z,8.01
2018-10-11T04:22:49.224Z,8.06
2018-10-11T04:25:17.686Z,8.07
2018-10-11T04:27:46.102Z,8.08
2018-10-11T04:30:14.700Z,7.95
2018-10-11T04:32:43.844Z,7.98
2018-10-11T04:35:12.340Z,8.07
2018-10-11T04:37:41.002Z,8.07
2018-10-11T04:40:09.455Z,8.03
2018-10-11T04:42:37.981Z,7.92
2018-10-11T04:45:06.384Z,7.75
2018-10-11T04:47:35.239Z,7.71
2018-10-11T04:50:03.669Z,7.62
2018-10-11T04:52:32.123Z,7.41
2018-10-11T04:55:01.020Z,7.85
2018-10-11T04:57:29.484Z,7.51
2018-10-11T04:59:57.963Z,7.82
2018-10-11T05:02:26.959Z,7.78
2018-10-11T05:04:55.375Z,7.75
2018-10-11T05:07:23.961Z,7.48
2018-10-11T05:09:52.439Z,7.65
2018-10-11T05:12:20.956Z,7.45
2018-10-11T05:14:49.711Z,7.59
2018-10-11T05:17:18.202Z,7.70
2018-10-11T05:19:46.671Z,7.63
2018-10-11T05:22:15.171Z,7.69
2018-10-11T05:24:43.641Z,7.71
2018-10-11T05:27:12.132Z,7.72
2018-10-11T05:29:40.601Z,7.66
2018-10-11T05:32:09.160Z,7.66
2018-10-11T05:34:37.595Z,7.40
2018-10-11T05:37:06.280Z,7.38
2018-10-11T05:39:34.752Z,7.37
2018-10-11T05:42:03.220Z,7.43
2018-10-11T05:44:32.025Z,7.44
2018-10-11T05:47:01.732Z,7.41
2018-10-11T05:49:30.238Z,7.56
2018-10-11T05:51:58.721Z,7.71
2018-10-11T05:54:27.461Z,7.71
2018-10-11T05:56:55.954Z,7.52
2018-10-11T05:59:24.425Z,7.79
2018-10-11T06:01:52.855Z,7.84
2018-10-11T06:04:21.464Z,7.75
2018-10-11T06:06:50.415Z,7.39
2018-10-11T06:09:19.705Z,7.29
2018-10-11T06:11:48.180Z,7.72
2018-10-11T06:14:16.756Z,7.95
2018-10-11T06:16:45.280Z,8.04
2018-10-11T06:19:14.931Z,8.16
2018-10-11T06:21:43.763Z,8.04
2018-10-11T06:24:12.268Z,7.70
2018-10-11T06:26:42.049Z,7.95
2018-10-11T06:29:10.708Z,8.20
2018-10-11T06:31:39.213Z,8.05
2018-10-11T06:34:07.741Z,8.17
2018-10-11T06:36:36.451Z,8.31
2018-10-11T06:39:06.603Z,8.55
2018-10-11T06:41:35.092Z,8.73
2018-10-11T06:44:03.562Z,8.74
2018-10-11T06:46:31.948Z,8.98
2018-10-11T06:49:00.467Z,9.02
2018-10-11T06:51:29.035Z,8.46
2018-10-11T06:53:57.468Z,8.82
2018-10-11T06:56:25.921Z,8.71
2018-10-11T06:58:54.429Z,8.48
2018-10-11T07:01:23.456Z,9.10
2018-10-11T07:03:51.933Z,9.34
2018-10-11T07:06:22.336Z,9.60
2018-10-11T07:08:50.811Z,9.67
2018-10-11T07:11:19.633Z,10.06
2018-10-11T07:13:48.337Z,9.54
2018-10-11T07:16:16.813Z,9.34
2018-10-11T07:18:45.585Z,9.79
2018-10-11T07:21:14.466Z,9.82
2018-10-11T07:23:43.464Z,10.41
2018-10-11T07:26:11.914Z,10.96
2018-10-11T07:28:40.795Z,11.42
2018-10-11T07:31:09.490Z,11.10
2018-10-11T07:33:37.963Z,10.23
2018-10-11T07:36:06.413Z,10.32
2018-10-11T07:38:34.926Z,10.61
2018-10-11T07:41:03.414Z,10.97
2018-10-11T07:43:32.390Z,11.16
2018-10-11T07:46:01.606Z,11.65
2018-10-11T07:48:30.040Z,11.76
2018-10-11T07:50:58.493Z,11.82
2018-10-11T07:53:26.934Z,11.95
2018-10-11T07:55:55.433Z,12.20
2018-10-11T07:58:23.860Z,12.25
2018-10-11T08:00:52.311Z,11.99
2018-10-11T08:03:20.806Z,12.04
2018-10-11T08:05:49.220Z,12.59
2018-10-11T08:08:17.702Z,12.73
2018-10-11T08:10:46.223Z,12.85
2018-10-11T08:13:14.657Z,12.84
2018-10-11T08:15:43.186Z,13.49
2018-10-11T08:18:11.619Z,13.84
2018-10-11T08:20:40.834Z,13.63
2018-10-11T08:23:09.319Z,13.51
2018-10-11T08:25:38.251Z,13.86
2018-10-11T08:28:06.308Z,13.77
2018-10-11T08:30:35.367Z,14.12
2018-10-11T08:33:03.825Z,14.27
2018-10-11T08:35:32.317Z,14.35
2018-10-11T08:38:00.934Z,14.41
2018-10-11T08:40:29.200Z,14.78
2018-10-11T08:42:58.668Z,15.13
2018-10-11T08:45:27.205Z,15.88
2018-10-11T08:47:55.624Z,16.48
2018-10-11T08:50:24.162Z,15.69
2018-10-11T08:52:52.584Z,16.46
2018-10-11T08:55:21.739Z,15.72
2018-10-11T08:57:50.167Z,16.37
2018-10-11T09:00:18.659Z,16.66
2018-10-11T09:02:47.127Z,17.29
2018-10-11T09:05:15.627Z,17.33
2018-10-11T09:07:44.097Z,17.02
2018-10-11T09:10:12.624Z,17.03
2018-10-11T09:12:41.096Z,16.87
2018-10-11T09:15:09.773Z,16.49
2018-10-11T09:17:38.307Z,16.26
2018-10-11T09:20:06.764Z,16.68
2018-10-11T09:22:35.232Z,16.35
2018-10-11T09:25:03.689Z,16.46
2018-10-11T09:27:32.131Z,16.82
2018-10-11T09:30:01.356Z,17.09
2018-10-11T09:32:29.836Z,16.97
2018-10-11T09:34:58.312Z,16.91
2018-10-11T09:37:26.756Z,17.04
2018-10-11T09:39:55.251Z,17.07
2018-10-11T09:42:23.684Z,17.30
2018-10-11T09:44:52.103Z,18.07
2018-10-11T09:47:20.627Z,17.45
2018-10-11T09:49:49.090Z,17.23
2018-10-11T09:52:17.615Z,17.95
2018-10-11T09:54:46.076Z,18.65
2018-10-11T09:57:21.814Z,19.26
2018-10-11T09:59:50.451Z,19.33
2018-10-11T10:02:19.265Z,18.81
2018-10-11T10:04:48.940Z,18.06
2018-10-11T10:07:17.407Z,18.43
2018-10-11T10:09:46.525Z,19.05
2018-10-11T10:12:15.445Z,18.42
2018-10-11T10:14:44.600Z,18.79
2018-10-11T10:17:13.065Z,18.38
2018-10-11T10:19:42.093Z,18.75
2018-10-11T10:22:10.573Z,19.50
2018-10-11T10:24:39.198Z,20.38
2018-10-11T10:27:07.667Z,21.37
2018-10-11T10:29:36.251Z,21.91
2018-10-11T10:32:05.008Z,22.21
2018-10-11T10:34:33.477Z,22.22
2018-10-11T10:37:02.215Z,21.45
2018-10-11T10:39:30.650Z,22.39
2018-10-11T10:41:59.111Z,22.66
2018-10-11T10:44:27.631Z,22.54
2018-10-11T10:46:56.064Z,21.63
2018-10-11T10:49:25.672Z,22.33
2018-10-11T10:51:54.172Z,22.11
2018-10-11T10:54:28.128Z,21.53
2018-10-11T10:56:57.599Z,21.53
2018-10-11T10:59:26.206Z,21.45
2018-10-11T11:01:55.764Z,21.89
2018-10-11T11:04:24.479Z,20.90
2018-10-11T11:06:52.960Z,21.35
2018-10-11T11:09:21.457Z,21.84
2018-10-11T11:11:49.900Z,21.94
2018-10-11T11:14:18.576Z,21.73
2018-10-11T11:16:47.316Z,22.26
2018-10-11T11:19:16.431Z,20.89
2018-10-11T11:21:45.015Z,21.26
2018-10-11T11:24:13.479Z,20.87
2018-10-11T11:26:41.952Z,20.82
2018-10-11T11:29:10.441Z,21.09
2018-10-11T11:31:38.932Z,21.02
2018-10-11T11:34:07.444Z,20.47
2018-10-11T11:36:35.851Z,21.04
2018-10-11T11:39:05.977Z,20.77
2018-10-11T11:41:34.409Z,20.64
2018-10-11T11:44:02.871Z,20.81
2018-10-11T11:46:31.255Z,20.80
2018-10-11T11:48:59.647Z,20.76
2018-10-11T11:51:28.244Z,21.47
2018-10-11T11:53:56.644Z,20.98
2018-10-11T11:56:25.023Z,21.28
2018-10-11T11:58:53.408Z,21.47
2018-10-11T12:01:21.793Z,21.24
2018-10-11T12:03:50.213Z,21.75
2018-10-11T12:06:18.579Z,21.86
2018-10-11T12:08:47.102Z,21.93
2018-10-11T12:11:15.570Z,21.85
2018-10-11T12:13:44.026Z,22.06
2018-10-11T12:16:12.483Z,21.70
2018-10-11T12:18:40.943Z,21.99
2018-10-11T12:21:09.377Z,22.51
2018-10-11T12:23:38.015Z,22.36
2018-10-11T12:26:06.698Z,22.17
2018-10-11T12:28:35.182Z,21.96
2018-10-11T12:31:03.613Z,22.03
2018-10-11T12:33:32.228Z,22.34
2018-10-11T12:36:00.751Z,22.65
2018-10-11T12:38:29.220Z,22.35
2018-10-11T12:40:57.758Z,22.25
2018-10-11T12:43:26.237Z,22.02
2018-10-11T12:45:54.718Z,22.61
2018-10-11T12:48:23.584Z,22.73
2018-10-11T12:50:52.088Z,22.48
2018-10-11T12:53:22.596Z,22.32
2018-10-11T12:55:51.175Z,22.37
2018-10-11T12:58:20.186Z,22.21
2018-10-11T13:00:48.721Z,21.84
2018-10-11T13:03:17.293Z,21.96
2018-10-11T13:05:46.427Z,21.62
2018-10-11T13:08:14.925Z,21.39
2018-10-11T13:10:43.380Z,21.70
2018-10-11T13:13:11.986Z,21.50
2018-10-11T13:15:40.415Z,21.62
2018-10-11T13:18:08.847Z,21.52
2018-10-11T13:20:37.385Z,21.32
2018-10-11T13:23:09.776Z,21.79
2018-10-11T13:25:34.409Z,21.67
2018-10-11T13:28:02.831Z,22.15
2018-10-11T13:30:31.279Z,22.43
2018-10-11T13:33:00.323Z,22.10
2018-10-11T13:35:29.997Z,22.44
2018-10-11T13:37:58.432Z,22.45
2018-10-11T13:40:27.134Z,22.25
2018-10-11T13:42:55.571Z,22.14
2018-10-11T13:45:23.989Z,22.12
2018-10-11T13:47:52.392Z,22.17
2018-10-11T13:50:21.637Z,22.17
2018-10-11T13:52:50.141Z,22.23
2018-10-11T13:55:18.563Z,22.03
2018-10-11T13:57:47.042Z,21.90
2018-10-11T14:00:15.504Z,21.65
2018-10-11T14:02:44.002Z,21.81
2018-10-11T14:05:12.406Z,21.83
2018-10-11T14:07:40.832Z,21.70
2018-10-11T14:10:09.298Z,21.81
2018-10-11T14:12:37.732Z,21.94
2018-10-11T14:15:07.104Z,22.01
2018-10-11T14:17:35.583Z,21.77
2018-10-11T14:20:05.069Z,21.69
2018-10-11T14:22:33.495Z,21.77
2018-10-11T14:25:01.958Z,21.72
2018-10-11T14:27:30.403Z,21.69
2018-10-11T14:29:58.799Z,21.79
2018-10-11T14:32:27.239Z,21.60
2018-10-11T14:34:56.514Z,21.92
2018-10-11T14:37:24.980Z,22.18
2018-10-11T14:39:53.448Z,22.25
2018-10-11T14:42:22.624Z,22.18
2018-10-11T14:44:51.672Z,22.29
2018-10-11T14:47:21.025Z,22.38
2018-10-11T14:49:50.255Z,22.40
2018-10-11T14:52:18.983Z,22.42
2018-10-11T14:54:47.923Z,22.42
2018-10-11T14:57:16.486Z,22.22
2018-10-11T14:59:45.170Z,22.04
2018-10-11T15:02:14.717Z,22.27
2018-10-11T15:04:43.617Z,22.25
2018-10-11T15:07:12.478Z,22.10
2018-10-11T15:09:41.618Z,21.91
2018-10-11T15:12:10.307Z,21.93
2018-10-11T15:14:38.776Z,21.69
2018-10-11T15:17:08.354Z,21.65
2018-10-11T15:19:36.848Z,21.76
2018-10-11T15:22:06.228Z,21.55
2018-10-11T15:24:34.691Z,21.64
2018-10-11T15:27:03.152Z,21.59
2018-10-11T15:29:31.722Z,21.57
2018-10-11T15:32:00.220Z,21.51
2018-10-11T15:34:28.619Z,21.25
2018-10-11T15:36:57.168Z,21.29
2018-10-11T15:39:26.412Z,21.19
2018-10-11T15:41:55.871Z,21.08
2018-10-11T15:44:24.273Z,20.98
2018-10-11T15:46:52.851Z,21.00
2018-10-11T15:49:21.256Z,20.80
2018-10-11T15:51:49.704Z,20.69
2018-10-11T15:54:18.285Z,20.67
2018-10-11T15:56:46.736Z,20.51
2018-10-11T15:59:15.208Z,20.16
2018-10-11T16:01:43.636Z,20.02
2018-10-11T16:04:12.079Z,19.88
2018-10-11T16:08:04.912Z,19.61
2018-10-11T16:10:33.323Z,19.34
2018-10-11T16:13:02.487Z,19.06
2018-10-11T16:15:30.924Z,18.85
2018-10-11T16:17:59.452Z,18.92
2018-10-11T16:20:28.755Z,18.75
2018-10-11T16:22:57.948Z,18.63
2018-10-11T16:25:26.375Z,18.47
2018-10-11T16:27:54.825Z,18.32
2018-10-11T16:30:23.306Z,18.28
2018-10-11T16:32:51.785Z,18.33
2018-10-11T16:35:21.039Z,18.26
2018-10-11T16:37:49.571Z,18.08
2018-10-11T16:40:18.040Z,17.75
2018-10-11T16:42:46.940Z,17.75
2018-10-11T16:45:15.421Z,17.64
2018-10-11T16:47:43.858Z,17.49
2018-10-11T16:50:12.332Z,17.30
2018-10-11T16:52:41.361Z,17.19
2018-10-11T16:55:09.839Z,17.11
2018-10-11T16:57:39.707Z,17.06
2018-10-11T17:00:08.646Z,16.89
2018-10-11T17:02:37.337Z,16.78
2018-10-11T17:05:06.134Z,16.65
2018-10-11T17:07:34.721Z,16.50
2018-10-11T17:10:03.464Z,16.44
2018-10-11T17:12:32.234Z,16.36
2018-10-11T17:15:01.021Z,16.21
2018-10-11T17:17:29.570Z,16.20
2018-10-11T17:19:58.735Z,16.06
2018-10-11T17:22:27.245Z,16.07
2018-10-11T17:24:56.875Z,15.98
2018-10-11T17:27:26.360Z,15.86
2018-10-11T17:29:55.108Z,15.84
2018-10-11T17:32:23.531Z,15.73
2018-10-11T17:34:52.295Z,15.61
2018-10-11T17:37:20.735Z,15.53
2018-10-11T17:39:49.539Z,15.40
2018-10-11T17:42:18.057Z,15.29
2018-10-11T17:44:46.491Z,15.16
2018-10-11T17:47:14.914Z,15.05
2018-10-11T17:49:43.438Z,14.94
2018-10-11T17:52:11.921Z,14.96
2018-10-11T17:54:44.687Z,14.90
2018-10-11T17:57:13.136Z,14.81
2018-10-11T17:59:41.597Z,14.73
2018-10-11T18:02:10.196Z,14.74
2018-10-11T18:04:38.664Z,14.58
2018-10-11T18:07:07.264Z,14.48
2018-10-11T18:09:39.724Z,14.41
2018-10-11T18:12:10.741Z,14.36
2018-10-11T18:14:41.856Z,14.33
2018-10-11T18:17:10.354Z,14.04
2018-10-11T18:19:42.482Z,14.31
2018-10-11T18:22:12.517Z,14.31
2018-10-11T18:24:41.276Z,14.11
2018-10-11T18:27:09.861Z,14.06
2018-10-11T18:29:41.319Z,13.99
2018-10-11T18:32:11.217Z,14.12
2018-10-11T18:34:39.789Z,14.15
2018-10-11T18:37:08.184Z,14.19
2018-10-11T18:39:36.740Z,14.19
2018-10-11T18:42:05.187Z,14.16
2018-10-11T18:44:33.720Z,14.20
2018-10-11T18:47:03.468Z,14.23
2018-10-11T18:49:32.027Z,14.23
2018-10-11T18:52:00.593Z,14.18
2018-10-11T18:54:29.032Z,14.07
2018-10-11T18:56:58.232Z,14.08
2018-10-11T18:59:26.733Z,13.98
2018-10-11T19:01:55.179Z,13.98
2018-10-11T19:04:23.568Z,13.97
2018-10-11T19:06:53.024Z,13.82
2018-10-11T19:09:21.447Z,13.72
2018-10-11T19:11:50.488Z,13.81
2018-10-11T19:14:19.134Z,13.78
2018-10-11T19:16:47.543Z,13.80
2018-10-11T19:19:15.924Z,13.85
2018-10-11T19:21:44.333Z,13.78
2018-10-11T19:24:12.728Z,13.73
2018-10-11T19:26:41.311Z,13.59
2018-10-11T19:29:09.696Z,13.55
2018-10-11T19:31:38.101Z,13.57
2018-10-11T19:34:06.476Z,13.62
2018-10-11T19:36:34.855Z,13.60
2018-10-11T19:39:03.392Z,13.73
2018-10-11T19:41:31.796Z,13.75
2018-10-11T19:44:00.243Z,13.58
2018-10-11T19:46:28.732Z,13.65
2018-10-11T19:48:57.108Z,13.75
2018-10-11T19:51:26.265Z,13.90
2018-10-11T19:53:54.814Z,13.84
2018-10-11T19:56:23.200Z,13.97
2018-10-11T19:58:51.780Z,13.91
2018-10-11T20:01:20.971Z,13.90
2018-10-11T20:03:49.367Z,13.59
2018-10-11T20:06:17.888Z,13.79
2018-10-11T20:08:46.292Z,13.74
2018-10-11T20:11:14.725Z,13.69
2018-10-11T20:13:43.079Z,13.69
2018-10-11T20:16:12.173Z,13.64
2018-10-11T20:18:40.877Z,13.68
2018-10-11T20:21:09.287Z,13.68
2018-10-11T20:23:37.666Z,13.70
2018-10-11T20:26:06.131Z,13.84
2018-10-11T20:28:34.456Z,13.85
2018-10-11T20:31:02.852Z,13.81
2018-10-11T20:33:31.251Z,13.84
2018-10-11T20:35:59.615Z,13.90
2018-10-11T20:38:28.552Z,13.79
2018-10-11T20:40:56.941Z,13.70
2018-10-11T20:43:25.550Z,13.52
2018-10-11T20:45:53.903Z,13.47
2018-10-11T20:48:22.334Z,13.45
2018-10-11T20:50:50.720Z,13.48
2018-10-11T20:53:19.365Z,13.45
2018-10-11T20:55:47.736Z,13.34
2018-10-11T20:58:16.138Z,13.29
2018-10-11T21:00:44.514Z,13.29
2018-10-11T21:03:12.925Z,13.21
2018-10-11T21:05:41.389Z,13.10
2018-10-11T21:08:10.263Z,13.03
2018-10-11T21:10:38.632Z,13.05
2018-10-11T21:13:07.079Z,12.71
2018-10-11T21:15:35.497Z,12.71
2018-10-11T21:18:04.255Z,12.68
2018-10-11T21:20:33.201Z,12.80
2018-10-11T21:23:01.771Z,12.75
2018-10-11T21:25:30.195Z,12.48
2018-10-11T21:27:59.243Z,12.78
2018-10-11T21:30:27.731Z,12.71
2018-10-11T21:32:56.160Z,12.68
2018-10-11T21:35:24.618Z,12.58
2018-10-11T21:37:54.412Z,12.42
2018-10-11T21:40:22.954Z,12.43
2018-10-11T21:42:52.046Z,12.32
2018-10-11T21:45:20.504Z,12.31
2018-10-11T21:47:49.148Z,12.27
2018-10-11T21:50:18.692Z,12.13
2018-10-11T21:52:47.233Z,12.08
2018-10-11T21:55:15.725Z,12.15
2018-10-11T21:57:44.250Z,12.20
2018-10-11T22:00:12.729Z,12.18
2018-10-11T22:02:41.845Z,12.15
2018-10-11T22:05:11.263Z,12.10
2018-10-11T22:07:39.718Z,12.07
2018-10-11T22:10:09.001Z,11.96
2018-10-11T22:12:37.456Z,11.95
2018-10-11T22:15:06.314Z,11.93
2018-10-11T22:17:34.651Z,12.00
2018-10-11T22:20:03.140Z,12.10
2018-10-11T22:22:32.284Z,12.05
2018-10-11T22:25:00.796Z,12.00
2018-10-11T22:27:29.379Z,11.96
2018-10-11T22:29:57.898Z,11.61
2018-10-11T22:32:26.368Z,11.67
2018-10-11T22:34:54.800Z,11.78
2018-10-11T22:37:23.386Z,11.82
2018-10-11T22:39:51.911Z,11.70
2018-10-11T22:42:20.388Z,11.77
2018-10-11T22:44:48.821Z,11.82
2018-10-11T22:47:17.241Z,11.75
2018-10-11T22:49:45.700Z,11.64
2018-10-11T22:52:14.235Z,11.62
2018-10-11T22:54:42.782Z,11.45
2018-10-11T22:57:11.218Z,11.34
2018-10-11T22:59:40.403Z,11.40
2018-10-11T23:02:08.845Z,11.31
2018-10-11T23:04:37.328Z,11.37
2018-10-11T23:07:05.944Z,11.34
2018-10-11T23:09:34.376Z,11.37
2018-10-11T23:12:02.876Z,11.46
2018-10-11T23:14:31.390Z,11.48
2018-10-11T23:16:59.996Z,11.38
2018-10-11T23:19:28.438Z,11.41
2018-10-11T23:21:56.933Z,11.25
2018-10-11T23:24:25.979Z,11.30
2018-10-11T23:26:54.467Z,11.12
2018-10-11T23:29:23.018Z,11.20
2018-10-11T23:31:51.509Z,11.28
2018-10-11T23:34:19.951Z,11.26
2018-10-11T23:36:48.344Z,11.35
2018-10-11T23:39:16.780Z,11.23
2018-10-11T23:41:45.214Z,10.92
2018-10-11T23:44:13.647Z,10.93
2018-10-11T23:46:42.426Z,10.88
2018-10-11T23:49:11.506Z,10.86
2018-10-11T23:51:40.132Z,10.85
2018-10-11T23:54:08.952Z,10.91
2018-10-11T23:56:37.392Z,10.90
2018-10-11T23:59:05.837Z,10.88
